Time;durP1;ratioP1;P1;durP2;ratioP2;P2;SDS_P1;SDS_P2;PMS_P1;PMS_P2;Temp;Humidity;BMP_temperature;BMP_pressure;BME280_temperature;BME280_humidity;BME280_pressure;Samples;Min_cycle;Max_cycle;Signal;HPM_P1;HPM_P2
2021/08/04 00:00:37;;;;;;;3.08;2.00;;;18.50;81.00;;;;;;5035878;28;20072;-88
2021/08/04 00:03:03;;;;;;;3.78;1.85;;;19.10;80.90;;;;;;5019535;28;20033;-87
2021/08/04 00:05:28;;;;;;;4.00;2.10;;;18.60;81.10;;;;;;5035609;28;20130;-87
2021/08/04 00:07:54;;;;;;;5.05;2.13;;;18.90;81.00;;;;;;5035854;28;20025;-87
2021/08/04 00:10:20;;;;;;;3.83;1.90;;;19.90;81.50;;;;;;5002729;28;20037;-86
2021/08/04 00:12:46;;;;;;;3.67;1.80;;;18.90;80.80;;;;;;5019154;28;20128;-89
2021/08/04 00:15:14;;;;;;;4.00;2.13;;;18.90;81.20;;;;;;5019548;28;20026;-89
2021/08/04 00:17:42;;;;;;;2.92;1.75;;;19.20;81.00;;;;;;5035871;28;20025;-91
2021/08/04 00:20:10;;;;;;;3.50;2.00;;;18.40;80.60;;;;;;5037771;28;20025;-88
2021/08/04 00:22:36;;;;;;;4.10;1.90;;;18.40;80.50;;;;;;5036345;28;20022;-88
2021/08/04 00:25:03;;;;;;;3.88;1.90;;;19.20;81.30;;;;;;5035738;28;20028;-89
2021/08/04 00:27:28;;;;;;;4.32;2.10;;;18.40;80.50;;;;;;5036243;28;20053;-89
2021/08/04 00:29:55;;;;;;;4.25;2.25;;;19.40;82.60;;;;;;5035835;28;20385;-89
2021/08/04 00:32:23;;;;;;;3.88;2.00;;;18.90;80.70;;;;;;5035910;28;20029;-89
2021/08/04 00:34:50;;;;;;;3.10;1.75;;;19.40;80.90;;;;;;5035176;28;20057;-89
2021/08/04 00:37:15;;;;;;;5.85;2.10;;;18.80;85.60;;;;;;5035525;28;20032;-88
2021/08/04 00:39:41;;;;;;;3.30;1.85;;;18.40;80.30;;;;;;5019230;28;20025;-88
2021/08/04 00:42:08;;;;;;;5.10;2.05;;;18.20;80.10;;;;;;5035808;28;20025;-89
2021/08/04 00:44:34;;;;;;;4.13;1.90;;;18.40;80.20;;;;;;5035540;28;20036;-89
2021/08/04 00:47:00;;;;;;;3.65;1.90;;;17.90;80.00;;;;;;5035146;28;20018;-89
2021/08/04 00:49:27;;;;;;;2.60;1.88;;;18.40;80.20;;;;;;5022080;28;20032;-89
2021/08/04 00:51:53;;;;;;;3.58;2.10;;;18.40;80.20;;;;;;5044176;28;20030;-89
2021/08/04 00:54:18;;;;;;;4.13;1.80;;;18.60;80.10;;;;;;5055232;28;20021;-88
2021/08/04 00:56:44;;;;;;;3.50;1.92;;;18.60;80.10;;;;;;5055295;28;20034;-87
2021/08/04 00:59:14;;;;;;;3.72;1.83;;;18.40;80.00;;;;;;5046390;28;20029;-88
2021/08/04 01:01:50;;;;;;;3.65;1.90;;;18.40;80.00;;;;;;5044102;28;20055;-88
2021/08/04 01:04:27;;;;;;;3.38;1.80;;;18.40;80.00;;;;;;5043785;28;20022;-88
2021/08/04 01:07:27;;;;;;;4.38;2.10;;;18.40;80.00;;;;;;5035863;28;20028;-88
2021/08/04 01:10:06;;;;;;;2.75;1.85;;;18.40;80.30;;;;;;4986353;28;20064;-88
2021/08/04 01:13:05;;;;;;;2.53;1.65;;;18.40;79.90;;;;;;5019430;28;20048;-89
2021/08/04 01:15:36;;;;;;;3.60;2.00;;;18.40;80.00;;;;;;5011252;28;20029;-89
2021/08/04 01:18:03;;;;;;;2.65;1.55;;;18.70;79.90;;;;;;5015115;28;20029;-89
2021/08/04 01:20:30;;;;;;;3.40;1.90;;;18.60;79.70;;;;;;5015115;28;20107;-88
2021/08/04 01:23:33;;;;;;;4.00;2.00;;;18.40;79.50;;;;;;5015675;28;20022;-88
2021/08/04 01:26:10;;;;;;;3.25;1.83;;;18.40;79.70;;;;;;5016067;28;20030;-89
2021/08/04 01:28:45;;;;;;;4.05;1.90;;;18.70;79.60;;;;;;5015253;28;20030;-88
2021/08/04 01:31:13;;;;;;;4.45;2.00;;;18.40;79.40;;;;;;5014817;28;20464;-88
2021/08/04 01:33:44;;;;;;;2.90;1.80;;;18.50;79.20;;;;;;5014337;28;20109;-89
2021/08/04 01:36:11;;;;;;;2.47;1.70;;;18.50;79.20;;;;;;5024897;28;20169;-89
2021/08/04 01:38:38;;;;;;;5.38;2.50;;;17.70;78.60;;;;;;5018197;28;20414;-89
2021/08/04 01:41:05;;;;;;;4.40;2.10;;;18.40;79.10;;;;;;5017528;28;20508;-88
2021/08/04 01:43:32;;;;;;;2.58;1.90;;;18.40;79.10;;;;;;5034195;28;20044;-89
2021/08/04 01:45:59;;;;;;;2.70;1.73;;;18.40;79.00;;;;;;5033377;28;20482;-88
2021/08/04 01:48:25;;;;;;;5.43;2.10;;;18.30;78.90;;;;;;5034374;28;20037;-88
2021/08/04 01:50:54;;;;;;;4.03;2.05;;;18.00;78.70;;;;;;5033733;28;20103;-89
2021/08/04 01:53:22;;;;;;;3.10;1.80;;;18.30;78.90;;;;;;5034588;28;20033;-89
2021/08/04 01:55:50;;;;;;;3.28;1.80;;;18.30;78.90;;;;;;5035771;28;20049;-88
2021/08/04 01:58:16;;;;;;;4.38;2.10;;;18.30;78.80;;;;;;5034144;28;20033;-88
2021/08/04 02:00:42;;;;;;;4.25;2.15;;;18.40;79.00;;;;;;5032926;28;20049;-88
2021/08/04 02:03:09;;;;;;;3.17;1.90;;;18.30;78.90;;;;;;5034058;28;20022;-88
2021/08/04 02:05:35;;;;;;;3.90;2.10;;;18.20;78.90;;;;;;5035290;28;20151;-88
2021/08/04 02:08:06;;;;;;;5.00;2.20;;;18.30;78.90;;;;;;5033777;28;20525;-88
2021/08/04 02:10:38;;;;;;;4.07;2.15;;;18.30;79.10;;;;;;5033823;28;20033;-88
2021/08/04 02:13:26;;;;;;;4.50;2.20;;;18.30;79.10;;;;;;5033785;28;20029;-88
2021/08/04 02:15:59;;;;;;;3.45;1.80;;;18.20;79.00;;;;;;5034069;28;20061;-88
2021/08/04 02:18:30;;;;;;;6.63;2.20;;;18.20;79.00;;;;;;5037874;28;20392;-88
2021/08/04 02:20:59;;;;;;;4.85;2.15;;;18.20;79.00;;;;;;5036904;28;20053;-88
2021/08/04 02:23:31;;;;;;;3.85;2.00;;;18.20;79.00;;;;;;5034476;28;20029;-88
2021/08/04 02:26:10;;;;;;;3.63;2.20;;;18.10;78.90;;;;;;5034086;28;20374;-88
2021/08/04 02:28:41;;;;;;;5.75;2.22;;;18.20;79.10;;;;;;5033091;28;20571;-88
2021/08/04 02:31:09;;;;;;;5.00;2.33;;;18.20;79.10;;;;;;5033419;28;20091;-88
2021/08/04 02:33:40;;;;;;;5.43;2.40;;;18.20;79.20;;;;;;5033817;28;20029;-91
2021/08/04 02:36:06;;;;;;;4.53;1.95;;;18.10;79.20;;;;;;5033819;28;20159;-88
2021/08/04 02:38:32;;;;;;;3.90;2.17;;;18.10;79.20;;;;;;5034200;28;20049;-88
2021/08/04 02:40:59;;;;;;;4.75;2.00;;;18.20;79.30;;;;;;5033156;28;20465;-88
2021/08/04 02:43:25;;;;;;;4.85;2.45;;;18.10;79.10;;;;;;5032762;28;20528;-89
2021/08/04 02:45:55;;;;;;;5.80;2.28;;;18.10;79.00;;;;;;5032669;28;20389;-88
2021/08/04 02:48:23;;;;;;;4.38;2.30;;;18.30;79.20;;;;;;5033660;28;20055;-89
2021/08/04 02:50:57;;;;;;;6.03;2.47;;;18.10;79.20;;;;;;5032955;28;20036;-89
2021/08/04 02:53:22;;;;;;;8.02;2.50;;;18.20;79.20;;;;;;5033200;28;20033;-90
2021/08/04 02:55:52;;;;;;;6.80;2.72;;;18.10;79.20;;;;;;5032922;28;20028;-89
2021/08/04 02:58:18;;;;;;;5.38;2.60;;;18.20;79.40;;;;;;5032763;28;20029;-89
2021/08/04 03:00:45;;;;;;;6.13;2.65;;;18.00;79.40;;;;;;5032794;28;20057;-89
2021/08/04 03:03:11;;;;;;;6.35;2.90;;;18.00;79.50;;;;;;5033213;28;20044;-89
2021/08/04 03:05:37;;;;;;;6.13;2.85;;;18.10;79.50;;;;;;5016454;28;20124;-89
2021/08/04 03:08:05;;;;;;;5.40;2.70;;;18.20;80.10;;;;;;5032835;28;20112;-89
2021/08/04 03:10:30;;;;;;;6.97;2.90;;;18.10;79.40;;;;;;5032318;28;20125;-89
2021/08/04 03:12:56;;;;;;;6.18;2.65;;;18.30;79.60;;;;;;5033127;28;20120;-89
2021/08/04 03:15:24;;;;;;;6.05;2.60;;;18.00;79.50;;;;;;5033955;28;20025;-88
2021/08/04 03:17:49;;;;;;;7.70;2.70;;;18.10;79.40;;;;;;5033146;28;20370;-89
2021/08/04 03:20:15;;;;;;;6.05;2.75;;;18.00;79.40;;;;;;5000093;28;20036;-89
2021/08/04 03:22:45;;;;;;;5.50;2.65;;;18.00;79.40;;;;;;5016291;28;20091;-89
2021/08/04 03:25:13;;;;;;;6.65;2.58;;;18.00;79.50;;;;;;5032781;28;20029;-88
2021/08/04 03:27:39;;;;;;;4.85;2.50;;;18.00;79.50;;;;;;5032669;28;20037;-89
2021/08/04 03:30:05;;;;;;;5.60;2.40;;;17.80;79.40;;;;;;5032737;28;20022;-90
2021/08/04 03:32:31;;;;;;;5.85;2.40;;;18.00;79.60;;;;;;5032349;28;20045;-88
2021/08/04 03:34:56;;;;;;;8.48;2.70;;;18.00;79.70;;;;;;5015222;28;20026;-84
2021/08/04 03:37:23;;;;;;;6.07;2.47;;;18.00;79.70;;;;;;5031789;28;20380;-84
2021/08/04 03:39:53;;;;;;;5.47;2.50;;;18.40;80.00;;;;;;5031750;28;20021;-84
2021/08/04 03:42:19;;;;;;;4.75;2.30;;;18.00;79.80;;;;;;5032866;28;20552;-83
2021/08/04 03:44:45;;;;;;;5.70;2.45;;;18.00;79.60;;;;;;5033300;28;20025;-83
2021/08/04 03:47:13;;;;;;;4.78;2.22;;;17.20;79.10;;;;;;5033980;28;20418;-83
2021/08/04 03:49:45;;;;;;;4.85;2.33;;;18.10;79.60;;;;;;5031816;28;20112;-84
2021/08/04 03:52:20;;;;;;;6.22;2.60;;;17.60;79.40;;;;;;5031675;28;20041;-83
2021/08/04 03:55:01;;;;;;;;;;;;;;;;;;;;;
2021/08/04 03:57:30;;;;;;;4.55;2.17;;;17.90;79.60;;;;;;5031638;28;19909;-85
2021/08/04 03:59:58;;;;;;;5.13;2.15;;;17.90;79.40;;;;;;5033059;28;20026;-86
2021/08/04 04:02:29;;;;;;;4.60;2.30;;;17.80;79.40;;;;;;5032704;28;20045;-86
2021/08/04 04:04:55;;;;;;;4.82;2.30;;;17.90;79.50;;;;;;5030567;28;20101;-86
2021/08/04 04:07:22;;;;;;;5.15;2.42;;;18.20;79.70;;;;;;5032850;28;20455;-86
2021/08/04 04:09:47;;;;;;;4.65;2.28;;;17.90;79.70;;;;;;5017682;28;20032;-86
2021/08/04 04:12:13;;;;;;;5.68;2.55;;;18.30;79.90;;;;;;4999242;28;20132;-86
2021/08/04 04:14:39;;;;;;;5.90;2.38;;;17.90;79.70;;;;;;5015224;28;20389;-86
2021/08/04 04:17:04;;;;;;;5.68;2.25;;;17.90;79.60;;;;;;4998912;28;20033;-86
2021/08/04 04:19:30;;;;;;;4.55;2.20;;;18.00;79.60;;;;;;5015244;28;20068;-86
2021/08/04 04:21:56;;;;;;;5.38;2.35;;;18.00;79.50;;;;;;4999101;28;20061;-86
2021/08/04 04:24:21;;;;;;;4.28;2.20;;;18.00;79.40;;;;;;5017346;28;20082;-86
2021/08/04 04:26:47;;;;;;;3.47;2.00;;;18.10;79.50;;;;;;5016447;28;20041;-86
2021/08/04 04:29:18;;;;;;;6.25;2.28;;;18.00;79.40;;;;;;5016350;28;20546;-86
2021/08/04 04:31:43;;;;;;;4.38;2.30;;;18.00;79.40;;;;;;5016347;28;20398;-86
2021/08/04 04:34:09;;;;;;;4.15;2.00;;;18.30;79.40;;;;;;5018845;28;20034;-86
2021/08/04 04:36:35;;;;;;;4.70;2.33;;;18.10;79.10;;;;;;5013102;28;20120;-86
2021/08/04 04:39:04;;;;;;;5.65;2.08;;;18.10;79.10;;;;;;5034569;28;20040;-86
2021/08/04 04:41:30;;;;;;;15.43;9.63;;;18.10;78.70;;;;;;5036634;28;20041;-86
2021/08/04 04:43:55;;;;;;;7.28;3.30;;;18.20;78.70;;;;;;5035397;28;20035;-86
2021/08/04 04:46:21;;;;;;;4.28;2.30;;;18.50;79.20;;;;;;5035243;28;20033;-85
2021/08/04 04:48:47;;;;;;;10.25;4.35;;;18.30;78.90;;;;;;5035145;28;20561;-86
2021/08/04 04:51:12;;;;;;;4.53;2.10;;;18.00;78.70;;;;;;5001585;28;20041;-86
2021/08/04 04:53:38;;;;;;;4.78;2.35;;;18.60;78.90;;;;;;5018332;28;20105;-85
2021/08/04 04:56:04;;;;;;;5.40;2.30;;;18.30;78.80;;;;;;5034314;28;20032;-86
2021/08/04 04:58:30;;;;;;;5.05;1.98;;;18.40;78.80;;;;;;5036421;28;20470;-88
2021/08/04 05:00:56;;;;;;;4.63;2.20;;;18.10;78.60;;;;;;5018356;28;20053;-88
2021/08/04 05:03:21;;;;;;;5.82;2.30;;;18.50;78.60;;;;;;5018433;28;20037;-87
2021/08/04 05:05:47;;;;;;;3.95;1.92;;;18.50;78.40;;;;;;5035670;28;20095;-83
2021/08/04 05:08:13;;;;;;;5.57;2.58;;;18.60;78.30;;;;;;5033928;28;20044;-87
2021/08/04 05:10:38;;;;;;;4.75;2.20;;;18.60;78.00;;;;;;5034135;28;20041;-87
2021/08/04 05:13:04;;;;;;;3.40;1.90;;;18.70;78.00;;;;;;5034205;28;20040;-86
2021/08/04 05:15:31;;;;;;;3.42;1.88;;;18.70;78.00;;;;;;5034164;28;20040;-84
2021/08/04 05:17:57;;;;;;;4.10;2.00;;;18.70;77.90;;;;;;5035029;28;20363;-86
2021/08/04 05:20:22;;;;;;;3.95;2.00;;;18.80;78.00;;;;;;5034044;28;20022;-86
2021/08/04 05:22:48;;;;;;;3.10;1.90;;;18.90;77.60;;;;;;5020427;28;20042;-83
2021/08/04 05:25:13;;;;;;;4.30;2.00;;;19.20;77.60;;;;;;5015285;28;20030;-80
2021/08/04 05:27:39;;;;;;;3.92;2.10;;;19.00;77.30;;;;;;5028844;28;20537;-85
2021/08/04 05:30:06;;;;;;;6.28;2.10;;;19.10;77.40;;;;;;5035197;28;20363;-85
2021/08/04 05:32:31;;;;;;;3.40;2.05;;;19.10;77.30;;;;;;5033825;28;20050;-85
2021/08/04 05:34:57;;;;;;;5.03;2.20;;;19.20;77.00;;;;;;5036684;28;20022;-83
2021/08/04 05:37:22;;;;;;;3.25;1.85;;;19.30;77.10;;;;;;5045472;28;20056;-84
2021/08/04 05:39:48;;;;;;;3.03;1.90;;;19.30;76.90;;;;;;5031724;28;20040;-85
2021/08/04 05:42:14;;;;;;;4.28;2.08;;;19.40;76.70;;;;;;5047646;28;20167;-83
2021/08/04 05:44:40;;;;;;;3.78;2.00;;;19.50;76.50;;;;;;5035986;28;20037;-83
2021/08/04 05:47:06;;;;;;;3.42;1.92;;;19.50;76.20;;;;;;5017939;28;20401;-85
2021/08/04 05:49:31;;;;;;;3.70;2.00;;;19.60;76.00;;;;;;5033644;28;20033;-83
2021/08/04 05:51:57;;;;;;;5.45;2.00;;;19.70;76.10;;;;;;5027817;28;20137;-79
2021/08/04 05:54:23;;;;;;;3.80;1.88;;;19.70;75.60;;;;;;5015127;28;20493;-86
2021/08/04 05:56:48;;;;;;;4.45;2.00;;;19.70;75.20;;;;;;5013085;28;20541;-84
2021/08/04 05:59:14;;;;;;;4.32;2.05;;;19.80;75.40;;;;;;5013231;28;20557;-84
2021/08/04 06:01:40;;;;;;;4.90;2.20;;;19.80;75.60;;;;;;5010818;28;20124;-84
2021/08/04 06:04:07;;;;;;;3.42;1.90;;;19.90;75.70;;;;;;4991032;28;20036;-85
2021/08/04 06:06:32;;;;;;;6.35;1.90;;;20.00;75.50;;;;;;4996778;28;20022;-86
2021/08/04 06:08:58;;;;;;;3.08;1.67;;;20.10;75.00;;;;;;5014343;28;20018;-84
2021/08/04 06:11:24;;;;;;;4.75;2.05;;;20.40;74.90;;;;;;5020268;28;20125;-85
2021/08/04 06:13:50;;;;;;;4.18;1.98;;;20.20;74.90;;;;;;5013875;28;20030;-85
2021/08/04 06:16:16;;;;;;;3.80;1.73;;;20.50;75.00;;;;;;5014338;28;20022;-85
2021/08/04 06:18:41;;;;;;;3.90;1.92;;;20.50;74.90;;;;;;5014656;28;20105;-86
2021/08/04 06:21:08;;;;;;;4.38;2.30;;;20.60;74.50;;;;;;4997023;28;20539;-85
2021/08/04 06:23:34;;;;;;;3.35;2.03;;;20.80;74.50;;;;;;4996916;28;20041;-86
2021/08/04 06:25:59;;;;;;;4.25;1.90;;;21.00;74.20;;;;;;5012811;28;20030;-86
2021/08/04 06:28:25;;;;;;;3.70;1.90;;;21.00;73.80;;;;;;5013131;28;20044;-85
2021/08/04 06:30:51;;;;;;;4.40;2.00;;;21.20;73.50;;;;;;5013614;28;20026;-84
2021/08/04 06:33:16;;;;;;;3.90;1.80;;;21.20;72.60;;;;;;5014088;28;20034;-83
2021/08/04 06:35:42;;;;;;;4.50;1.98;;;21.50;72.40;;;;;;5014329;28;20414;-84
2021/08/04 06:38:07;;;;;;;3.30;1.80;;;21.40;71.80;;;;;;5013091;28;20026;-84
2021/08/04 06:40:33;;;;;;;2.60;1.70;;;21.30;71.10;;;;;;4996224;28;20041;-85
2021/08/04 06:42:59;;;;;;;3.65;2.03;;;21.40;71.60;;;;;;5012629;28;20025;-83
2021/08/04 06:45:24;;;;;;;4.05;1.88;;;21.20;70.60;;;;;;5013834;28;20029;-83
2021/08/04 06:47:50;;;;;;;5.22;2.10;;;21.40;71.00;;;;;;5012693;28;20434;-84
2021/08/04 06:50:15;;;;;;;4.85;2.00;;;21.50;71.20;;;;;;5012732;28;20038;-84
2021/08/04 06:52:41;;;;;;;4.80;2.08;;;21.70;71.50;;;;;;5013763;28;20421;-85
2021/08/04 06:55:07;;;;;;;4.32;1.92;;;21.60;71.10;;;;;;4996204;28;20030;-87
2021/08/04 06:57:33;;;;;;;3.58;2.00;;;21.70;71.00;;;;;;5014172;28;20034;-91
2021/08/04 06:59:58;;;;;;;3.05;1.70;;;21.90;71.50;;;;;;5013042;28;20022;-86
2021/08/04 07:02:24;;;;;;;3.08;1.85;;;22.00;70.40;;;;;;5012907;28;20441;-85
2021/08/04 07:04:49;;;;;;;2.55;1.90;;;22.10;69.70;;;;;;5012984;28;20104;-85
2021/08/04 07:07:16;;;;;;;4.63;2.08;;;22.20;69.80;;;;;;4996247;28;20446;-83
2021/08/04 07:09:42;;;;;;;8.55;2.67;;;22.10;69.90;;;;;;5012340;28;20121;-83
2021/08/04 07:12:10;;;;;;;4.18;2.00;;;22.20;69.60;;;;;;4994090;28;20037;-84
2021/08/04 07:14:36;;;;;;;4.65;1.80;;;22.30;69.00;;;;;;5014043;28;20108;-84
2021/08/04 07:17:02;;;;;;;3.08;1.85;;;22.40;68.80;;;;;;5012513;28;20057;-85
2021/08/04 07:19:27;;;;;;;3.70;1.90;;;22.50;68.50;;;;;;4996160;28;20032;-86
2021/08/04 07:21:53;;;;;;;3.80;2.10;;;22.60;68.40;;;;;;5012521;28;20038;-82
2021/08/04 07:24:19;;;;;;;2.90;1.88;;;22.40;68.10;;;;;;5013582;28;20040;-82
2021/08/04 07:26:44;;;;;;;3.85;2.00;;;22.40;67.90;;;;;;5012554;28;20026;-89
2021/08/04 07:29:11;;;;;;;3.80;2.00;;;22.30;67.50;;;;;;4996010;28;20455;-82
2021/08/04 07:31:37;;;;;;;3.72;1.80;;;22.20;67.40;;;;;;5013492;28;20450;-81
2021/08/04 07:34:03;;;;;;;2.53;1.77;;;22.30;68.00;;;;;;5013218;28;20084;-80
2021/08/04 07:36:29;;;;;;;3.22;1.80;;;22.30;67.70;;;;;;5013396;28;20030;-81
2021/08/04 07:38:55;;;;;;;4.18;1.80;;;22.40;67.90;;;;;;5013403;28;20401;-84
2021/08/04 07:41:20;;;;;;;4.72;1.88;;;22.50;68.30;;;;;;5011874;28;20030;-83
2021/08/04 07:43:49;;;;;;;3.63;2.00;;;22.50;67.50;;;;;;5015313;28;20053;-82
2021/08/04 07:46:17;;;;;;;3.35;1.88;;;22.60;67.60;;;;;;5017201;28;20014;-83
2021/08/04 07:48:43;;;;;;;4.35;1.98;;;22.70;68.00;;;;;;5015915;28;20116;-84
2021/08/04 07:51:09;;;;;;;3.30;1.83;;;22.90;67.20;;;;;;5016862;28;20042;-83
2021/08/04 07:53:34;;;;;;;2.83;1.85;;;23.00;66.30;;;;;;5016011;28;20033;-83
2021/08/04 07:56:00;;;;;;;3.65;1.92;;;23.00;66.10;;;;;;5015801;28;20160;-83
2021/08/04 07:58:26;;;;;;;2.53;1.70;;;23.00;65.90;;;;;;5017190;28;20029;-84
2021/08/04 08:00:51;;;;;;;2.90;1.88;;;23.10;65.80;;;;;;5017336;28;20042;-85
2021/08/04 08:03:17;;;;;;;3.30;1.92;;;23.20;65.70;;;;;;5016396;28;20112;-86
2021/08/04 08:05:43;;;;;;;3.92;2.05;;;23.40;66.50;;;;;;5017305;28;20018;-85
2021/08/04 08:08:08;;;;;;;5.88;2.03;;;23.70;66.40;;;;;;4999891;28;20478;-85
2021/08/04 08:10:36;;;;;;;4.20;1.90;;;23.90;66.20;;;;;;4999291;28;20116;-86
2021/08/04 08:13:03;;;;;;;6.10;1.98;;;24.20;65.60;;;;;;5015790;28;20032;-83
2021/08/04 08:15:29;;;;;;;3.40;1.88;;;24.40;65.10;;;;;;5017173;28;20025;-82
2021/08/04 08:17:55;;;;;;;3.97;1.90;;;24.60;64.70;;;;;;5017162;28;20029;-83
2021/08/04 08:20:21;;;;;;;6.28;1.77;;;24.70;63.00;;;;;;5015452;28;20390;-83
2021/08/04 08:22:48;;;;;;;3.15;1.80;;;24.80;63.60;;;;;;5016697;28;20041;-83
2021/08/04 08:25:15;;;;;;;4.10;1.65;;;25.00;63.20;;;;;;5015479;28;20046;-82
2021/08/04 08:27:42;;;;;;;5.88;2.08;;;25.00;61.90;;;;;;5015814;28;20105;-83
2021/08/04 08:30:09;;;;;;;3.78;1.90;;;25.20;61.70;;;;;;5016769;28;20443;-81
2021/08/04 08:32:35;;;;;;;4.07;1.90;;;25.20;61.60;;;;;;4998886;28;20042;-82
2021/08/04 08:35:00;;;;;;;3.15;1.77;;;25.30;62.20;;;;;;5014910;28;20441;-82
2021/08/04 08:37:26;;;;;;;3.97;1.73;;;25.40;62.10;;;;;;5015447;28;20037;-81
2021/08/04 08:39:53;;;;;;;4.00;1.75;;;25.50;60.80;;;;;;5015801;28;20061;-82
2021/08/04 08:42:19;;;;;;;3.78;1.98;;;25.30;59.50;;;;;;5015165;28;20405;-82
2021/08/04 08:44:46;;;;;;;2.33;1.70;;;25.10;59.30;;;;;;5014884;28;20034;-81
2021/08/04 08:47:15;;;;;;;3.47;2.00;;;24.70;59.60;;;;;;5014798;28;20061;-82
2021/08/04 08:49:43;;;;;;;3.95;2.10;;;24.50;60.00;;;;;;5015853;28;20133;-82
2021/08/04 08:52:09;;;;;;;3.95;1.73;;;24.40;59.70;;;;;;5015503;28;20033;-82
2021/08/04 08:54:35;;;;;;;5.10;2.08;;;24.20;59.30;;;;;;5014445;28;20113;-83
2021/08/04 08:57:01;;;;;;;3.72;2.00;;;24.00;59.20;;;;;;5015708;28;20475;-84
2021/08/04 08:59:27;;;;;;;5.07;2.10;;;23.70;59.80;;;;;;4998484;28;20113;-83
2021/08/04 09:01:53;;;;;;;6.00;1.92;;;23.60;60.10;;;;;;5014439;28;20221;-83
2021/08/04 09:04:18;;;;;;;2.80;1.90;;;23.50;60.30;;;;;;5015821;28;20081;-83
2021/08/04 09:06:44;;;;;;;5.63;2.28;;;23.40;60.10;;;;;;5015979;28;20052;-85
2021/08/04 09:09:32;;;;;;;5.13;1.95;;;23.30;60.40;;;;;;5015730;28;20030;-85
2021/08/04 09:12:10;;;;;;;4.15;2.05;;;23.20;59.70;;;;;;5032871;28;20041;-84
2021/08/04 09:14:39;;;;;;;3.45;2.03;;;23.10;59.90;;;;;;4994583;28;20529;-86
2021/08/04 09:17:07;;;;;;;2.97;1.92;;;23.00;59.90;;;;;;5014145;28;20025;-86
2021/08/04 09:19:41;;;;;;;3.15;1.95;;;23.00;60.40;;;;;;5014224;28;20022;-85
2021/08/04 09:22:09;;;;;;;4.40;2.17;;;22.90;60.10;;;;;;5015909;28;20386;-88
2021/08/04 09:24:57;;;;;;;3.65;2.38;;;22.90;59.50;;;;;;5015840;28;20541;-88
2021/08/04 09:27:49;;;;;;;3.35;2.00;;;22.80;59.20;;;;;;5015749;28;20040;-87
2021/08/04 09:30:28;;;;;;;3.85;2.10;;;22.70;59.70;;;;;;5014443;28;20109;-87
2021/08/04 09:33:04;;;;;;;4.68;2.10;;;22.70;59.50;;;;;;5014363;28;20073;-87
2021/08/04 09:35:39;;;;;;;4.78;2.10;;;22.70;59.30;;;;;;5013980;28;20438;-82
2021/08/04 09:38:09;;;;;;;5.47;2.03;;;22.70;59.70;;;;;;5015181;28;20034;-82
2021/08/04 09:40:35;;;;;;;5.30;2.30;;;22.70;59.50;;;;;;5013856;28;20470;-82
2021/08/04 09:43:00;;;;;;;4.43;2.20;;;22.70;59.10;;;;;;5014051;28;20033;-82
2021/08/04 09:45:54;;;;;;;5.72;2.50;;;22.10;58.90;;;;;;5014065;28;20022;-83
2021/08/04 09:48:25;;;;;;;3.55;1.88;;;22.60;59.30;;;;;;5011665;28;20041;-82
2021/08/04 09:50:55;;;;;;;3.83;1.85;;;22.60;59.50;;;;;;5014462;28;20026;-82
2021/08/04 09:53:26;;;;;;;4.35;2.28;;;22.80;59.50;;;;;;5013837;28;20030;-83
2021/08/04 09:56:08;;;;;;;3.65;2.00;;;22.90;58.80;;;;;;5022335;28;20053;-84
2021/08/04 09:58:35;;;;;;;3.85;2.20;;;23.20;59.90;;;;;;5014007;28;20493;-86
2021/08/04 10:01:02;;;;;;;4.38;2.35;;;23.60;59.30;;;;;;5014486;28;20046;-86
2021/08/04 10:03:29;;;;;;;3.55;2.05;;;23.90;58.40;;;;;;4996693;28;20026;-86
2021/08/04 10:05:55;;;;;;;3.97;2.17;;;24.20;57.90;;;;;;5013563;28;20018;-86
2021/08/04 10:08:21;;;;;;;4.38;2.03;;;24.30;57.80;;;;;;5012629;28;20388;-86
2021/08/04 10:10:50;;;;;;;2.95;1.80;;;24.50;58.10;;;;;;4995250;28;20017;-86
2021/08/04 10:13:20;;;;;;;4.50;2.10;;;24.70;57.50;;;;;;5014062;28;20037;-83
2021/08/04 10:15:49;;;;;;;4.38;1.83;;;25.10;56.40;;;;;;5014476;28;20419;-84
2021/08/04 10:18:18;;;;;;;3.88;2.10;;;24.80;56.10;;;;;;5012970;28;20022;-88
2021/08/04 10:20:52;;;;;;;2.45;1.90;;;24.90;56.50;;;;;;5012793;28;20479;-83
2021/08/04 10:23:18;;;;;;;4.03;2.00;;;25.00;56.10;;;;;;5017958;28;20021;-84
2021/08/04 10:25:45;;;;;;;2.95;2.10;;;25.30;56.40;;;;;;5012644;28;20025;-83
2021/08/04 10:28:12;;;;;;;3.65;2.00;;;25.50;56.60;;;;;;5020045;28;20053;-84
2021/08/04 10:30:38;;;;;;;4.35;1.98;;;25.80;56.30;;;;;;5019434;28;20045;-83
2021/08/04 10:33:05;;;;;;;4.72;2.20;;;26.00;55.90;;;;;;5013118;28;20092;-83
2021/08/04 10:35:31;;;;;;;4.78;2.00;;;26.30;56.20;;;;;;5013635;28;20022;-83
2021/08/04 10:37:57;;;;;;;3.65;2.00;;;26.70;56.40;;;;;;5013853;28;20438;-83
2021/08/04 10:40:26;;;;;;;3.28;1.90;;;26.90;55.20;;;;;;5013628;28;20041;-83
2021/08/04 10:42:53;;;;;;;3.90;2.03;;;27.00;54.00;;;;;;5013579;28;20149;-83
2021/08/04 10:45:27;;;;;;;2.92;2.08;;;27.00;53.70;;;;;;5013639;28;20034;-83
2021/08/04 10:48:13;;;;;;;5.03;2.17;;;27.10;53.70;;;;;;5013565;28;20083;-83
2021/08/04 10:50:39;;;;;;;3.63;2.10;;;27.20;53.60;;;;;;5013409;28;20038;-83
2021/08/04 10:53:06;;;;;;;5.10;2.13;;;27.40;53.40;;;;;;5012476;28;20049;-83
2021/08/04 10:56:04;;;;;;;4.10;1.98;;;27.50;53.60;;;;;;5012561;28;20057;-87
2021/08/04 10:58:33;;;;;;;6.30;2.28;;;27.70;53.70;;;;;;4960069;28;20113;-89
2021/08/04 11:01:24;;;;;;;4.72;2.13;;;28.10;53.70;;;;;;5013120;28;20444;-88
2021/08/04 11:03:50;;;;;;;4.40;2.08;;;28.50;53.00;;;;;;5012529;28;20033;-88
2021/08/04 11:06:16;;;;;;;2.85;1.98;;;28.70;52.30;;;;;;5012634;28;20072;-88
2021/08/04 11:08:47;;;;;;;2.88;1.77;;;28.70;52.00;;;;;;4996032;28;20125;-89
2021/08/04 11:11:52;;;;;;;2.97;1.88;;;28.70;51.30;;;;;;4996716;28;20100;-89
2021/08/04 11:14:36;;;;;;;;;;;28.60;51.10;;;;;;5012243;28;20049;-88
2021/08/04 11:17:04;;;;;;;3.05;2.00;;;28.60;51.10;;;;;;5013183;28;19912;-89
2021/08/04 11:19:34;;;;;;;3.00;2.10;;;28.50;50.80;;;;;;5017584;28;20029;-84
2021/08/04 11:22:18;;;;;;;3.25;1.88;;;28.50;50.80;;;;;;5017639;28;20076;-84
2021/08/04 11:25:01;;;;;;;3.55;2.00;;;28.50;50.90;;;;;;5017263;28;20030;-83
2021/08/04 11:27:30;;;;;;;4.05;2.00;;;28.50;50.20;;;;;;5017262;28;20084;-83
2021/08/04 11:29:57;;;;;;;4.40;1.92;;;28.50;50.30;;;;;;5017237;28;20050;-85
2021/08/04 11:32:26;;;;;;;2.22;1.88;;;28.50;50.10;;;;;;5015549;28;20034;-84
2021/08/04 11:34:52;;;;;;;4.18;2.28;;;28.40;50.00;;;;;;5017060;28;20022;-84
2021/08/04 11:37:18;;;;;;;6.38;2.10;;;28.30;49.80;;;;;;5017277;28;20037;-85
2021/08/04 11:40:02;;;;;;;5.57;2.08;;;28.30;50.20;;;;;;5017011;28;20112;-85
2021/08/04 11:42:29;;;;;;;3.20;2.00;;;28.30;49.80;;;;;;5009082;28;20030;-83
2021/08/04 11:45:03;;;;;;;3.35;2.05;;;28.20;49.20;;;;;;5016858;28;20042;-85
2021/08/04 11:47:29;;;;;;;5.60;2.17;;;28.00;48.80;;;;;;5017255;28;20124;-83
2021/08/04 11:49:54;;;;;;;4.88;2.30;;;27.70;49.10;;;;;;5000275;28;20065;-84
2021/08/04 11:52:25;;;;;;;3.95;2.22;;;27.50;49.30;;;;;;5015998;28;20115;-82
2021/08/04 11:55:10;;;;;;;6.47;2.10;;;27.30;48.70;;;;;;5016208;28;20022;-83
2021/08/04 11:57:48;;;;;;;5.20;2.03;;;27.00;49.10;;;;;;5017425;28;20026;-84
2021/08/04 12:00:16;;;;;;;3.08;1.90;;;26.90;49.60;;;;;;5017250;28;20018;-83
2021/08/04 12:02:41;;;;;;;5.07;1.88;;;26.70;49.80;;;;;;5017419;28;20079;-83
2021/08/04 12:05:09;;;;;;;4.18;2.17;;;26.60;49.80;;;;;;5015968;28;20124;-86
2021/08/04 12:07:38;;;;;;;3.22;1.80;;;26.50;49.20;;;;;;5015701;28;20030;-86
2021/08/04 12:10:12;;;;;;;4.38;2.10;;;26.30;49.10;;;;;;5016289;28;20574;-86
2021/08/04 12:12:43;;;;;;;4.22;1.85;;;26.10;49.10;;;;;;5015865;28;20406;-86
2021/08/04 12:15:18;;;;;;;4.05;1.90;;;25.90;49.60;;;;;;5017295;28;20119;-84
2021/08/04 12:17:44;;;;;;;2.40;1.65;;;25.80;49.90;;;;;;5015751;28;20030;-84
2021/08/04 12:20:10;;;;;;;3.35;1.83;;;25.80;50.30;;;;;;4999377;28;20030;-85
2021/08/04 12:22:38;;;;;;;3.13;2.00;;;25.80;50.20;;;;;;5017222;28;20018;-90
2021/08/04 12:25:05;;;;;;;2.38;1.80;;;25.80;50.00;;;;;;5016725;28;20088;-89
2021/08/04 12:27:40;;;;;;;6.20;1.92;;;25.80;50.00;;;;;;5000481;28;20030;-86
2021/08/04 12:30:06;;;;;;;3.65;1.80;;;25.90;50.30;;;;;;5015815;28;20025;-86
2021/08/04 12:32:33;;;;;;;3.75;2.00;;;26.10;50.30;;;;;;5015796;28;20528;-90
2021/08/04 12:35:01;;;;;;;3.60;2.00;;;26.40;50.50;;;;;;5016418;28;20026;-88
2021/08/04 12:37:28;;;;;;;2.40;1.73;;;26.70;50.60;;;;;;5000002;28;20030;-88
2021/08/04 12:40:05;;;;;;;3.58;1.83;;;27.10;50.80;;;;;;5016918;28;20018;-86
2021/08/04 12:42:32;;;;;;;3.58;1.85;;;27.60;50.50;;;;;;5015185;28;20041;-86
2021/08/04 12:45:16;;;;;;;3.53;1.85;;;28.10;49.50;;;;;;5015430;28;20022;-87
2021/08/04 12:47:54;;;;;;;3.55;1.98;;;28.30;48.80;;;;;;5015087;28;20121;-87
2021/08/04 12:50:20;;;;;;;3.10;1.85;;;28.50;48.30;;;;;;5014409;28;20060;-86
2021/08/04 12:52:46;;;;;;;2.60;1.70;;;28.60;48.70;;;;;;4998342;28;20034;-86
2021/08/04 12:55:13;;;;;;;4.13;1.77;;;28.90;48.20;;;;;;5018750;28;20033;-85